Time;durP1;ratioP1;P1;durP2;ratioP2;P2;SDS_P1;SDS_P2;PMS_P1;PMS_P2;Temp;Humidity;BMP_temperature;BMP_pressure;BME280_temperature;BME280_humidity;BME280_pressure;Samples;Min_cycle;Max_cycle;Signal;HPM_P1;HPM_P2
2023/07/07 00:04:21;;;;;;;4.87;2.83;;;23.70;81.80;;;;;;10908987;32;20023;-70
2023/07/07 00:10:23;;;;;;;6.05;3.20;;;23.70;81.80;;;;;;10908771;32;20020;-70
2023/07/07 00:16:27;;;;;;;3.95;2.28;;;23.60;81.90;;;;;;10908593;32;20023;-70
2023/07/07 00:22:31;;;;;;;6.78;2.90;;;23.60;81.80;;;;;;10908443;32;20406;-70
2023/07/07 00:28:33;;;;;;;3.80;2.30;;;23.60;81.80;;;;;;10894407;32;20417;-70
2023/07/07 00:34:35;;;;;;;4.57;2.60;;;23.50;81.90;;;;;;10904866;32;20027;-70
2023/07/07 00:40:37;;;;;;;4.53;2.83;;;23.50;81.80;;;;;;10894159;32;20042;-72
2023/07/07 00:46:40;;;;;;;8.32;3.62;;;23.50;81.90;;;;;;10906128;32;20057;-72
2023/07/07 00:52:45;;;;;;;3.83;2.67;;;23.50;81.90;;;;;;10907248;32;20023;-72
2023/07/07 00:58:47;;;;;;;4.75;2.78;;;23.50;81.90;;;;;;10907186;32;20330;-72
2023/07/07 01:04:51;;;;;;;4.82;2.95;;;23.50;81.80;;;;;;10906721;32;20038;-72
2023/07/07 01:10:53;;;;;;;3.67;2.42;;;23.40;81.90;;;;;;10893304;32;20042;-72
2023/07/07 01:17:04;;;;;;;6.43;2.78;;;23.30;82.20;;;;;;10906462;32;20019;-72
2023/07/07 01:23:59;;;;;;;6.93;3.97;;;23.40;82.30;;;;;;10906228;32;20070;-72
2023/07/07 01:30:36;;;;;;;5.00;3.10;;;23.30;82.20;;;;;;10883036;32;20058;-72
2023/07/07 01:36:38;;;;;;;8.05;2.97;;;23.20;82.30;;;;;;10887972;32;20049;-73
2023/07/07 01:42:47;;;;;;;8.00;4.28;;;23.10;82.30;;;;;;10890924;32;20059;-72
2023/07/07 01:48:56;;;;;;;5.80;3.37;;;23.00;82.70;;;;;;10905191;32;20023;-72
2023/07/07 01:55:14;;;;;;;5.95;3.80;;;23.10;82.50;;;;;;10905127;32;20024;-72
2023/07/07 02:01:18;;;;;;;4.87;3.27;;;23.00;82.40;;;;;;10904994;32;20024;-72
2023/07/07 02:07:20;;;;;;;5.05;3.10;;;23.00;82.40;;;;;;10904671;32;20038;-72
2023/07/07 02:13:22;;;;;;;6.57;3.97;;;22.90;82.40;;;;;;10874439;32;20054;-72
2023/07/07 02:19:24;;;;;;;4.80;3.62;;;22.90;82.40;;;;;;10904415;32;20019;-72
2023/07/07 02:25:26;;;;;;;4.55;3.00;;;22.90;82.40;;;;;;10874177;32;20066;-72
2023/07/07 02:31:28;;;;;;;5.07;3.15;;;22.90;82.30;;;;;;10904143;32;20105;-72
2023/07/07 02:37:30;;;;;;;4.12;2.72;;;22.80;82.40;;;;;;10890237;32;20035;-72
2023/07/07 02:43:32;;;;;;;4.43;3.30;;;22.80;82.40;;;;;;10903969;32;20015;-72
2023/07/07 02:49:35;;;;;;;5.28;3.60;;;22.90;82.50;;;;;;10903846;32;20050;-72
2023/07/07 02:55:37;;;;;;;4.90;3.22;;;22.80;82.50;;;;;;10903710;32;20015;-72
2023/07/07 03:01:44;;;;;;;5.97;4.10;;;22.70;82.60;;;;;;10903576;32;20050;-72
2023/07/07 03:07:46;;;;;;;3.50;2.75;;;22.60;82.70;;;;;;10903450;32;20011;-72
2023/07/07 03:13:49;;;;;;;5.15;3.33;;;22.60;82.70;;;;;;10889613;32;20031;-72
2023/07/07 03:19:52;;;;;;;5.47;3.17;;;22.50;82.70;;;;;;10903479;32;20337;-72
2023/07/07 03:25:56;;;;;;;4.78;2.58;;;22.40;82.90;;;;;;10893292;32;20031;-72
2023/07/07 03:31:58;;;;;;;4.80;3.70;;;22.40;82.90;;;;;;10910221;32;20050;-72
2023/07/07 03:38:02;;;;;;;4.57;2.97;;;22.30;82.90;;;;;;10905980;32;20050;-73
2023/07/07 03:44:04;;;;;;;6.07;3.83;;;22.30;83.00;;;;;;10909651;32;20058;-72
2023/07/07 03:50:08;;;;;;;4.18;2.78;;;22.40;82.90;;;;;;10909483;32;20444;-72
2023/07/07 03:56:13;;;;;;;3.33;2.65;;;22.30;82.90;;;;;;10909329;32;20027;-72
2023/07/07 04:02:16;;;;;;;4.47;3.12;;;22.40;83.10;;;;;;10895705;32;20053;-72
2023/07/07 04:08:21;;;;;;;4.43;3.00;;;22.40;82.90;;;;;;10908662;32;20027;-72
2023/07/07 04:14:28;;;;;;;2.65;2.00;;;22.40;82.90;;;;;;10907665;32;20027;-72
2023/07/07 04:20:33;;;;;;;5.07;2.95;;;22.30;82.90;;;;;;10895223;32;20027;-72
2023/07/07 04:27:03;;;;;;;4.93;2.95;;;22.20;83.10;;;;;;10907480;32;20028;-72
2023/07/07 04:33:05;;;;;;;3.42;2.20;;;22.20;83.20;;;;;;10908051;32;20354;-72
2023/07/07 04:39:07;;;;;;;4.32;2.45;;;22.30;83.20;;;;;;10907521;32;20024;-72
2023/07/07 04:45:09;;;;;;;4.43;2.70;;;22.30;83.00;;;;;;10894163;32;20041;-72
2023/07/07 04:51:12;;;;;;;3.35;2.30;;;22.40;83.00;;;;;;10907323;32;20468;-72
2023/07/07 04:57:14;;;;;;;5.12;2.62;;;22.50;83.10;;;;;;10893554;32;20069;-72
2023/07/07 05:03:16;;;;;;;5.43;2.65;;;22.60;83.00;;;;;;10907020;32;20020;-72
2023/07/07 05:09:19;;;;;;;1.92;1.17;;;22.70;83.00;;;;;;10906834;32;20038;-72
2023/07/07 05:15:24;;;;;;;4.75;2.60;;;22.90;82.90;;;;;;10893330;32;20050;-72
2023/07/07 05:21:26;;;;;;;1.55;1.15;;;22.90;83.00;;;;;;10906385;32;20019;-72
2023/07/07 05:27:28;;;;;;;3.58;1.77;;;23.00;83.00;;;;;;10906049;32;20046;-72
2023/07/07 05:33:31;;;;;;;2.05;1.35;;;23.00;83.00;;;;;;10905884;32;20019;-72
2023/07/07 05:39:33;;;;;;;1.52;1.35;;;23.00;82.80;;;;;;10905661;32;20402;-72
2023/07/07 05:45:35;;;;;;;2.87;1.48;;;23.10;82.80;;;;;;10905605;32;20046;-72
2023/07/07 05:51:37;;;;;;;2.35;1.40;;;23.30;82.90;;;;;;10904818;32;20020;-72
2023/07/07 05:57:39;;;;;;;1.23;1.00;;;23.50;82.90;;;;;;10905034;32;20023;-72
2023/07/07 06:03:43;;;;;;;2.10;1.48;;;23.60;82.80;;;;;;10906156;32;20085;-72
2023/07/07 06:09:57;;;;;;;2.03;1.35;;;23.80;82.70;;;;;;10905783;32;20050;-72
2023/07/07 06:16:00;;;;;;;1.35;0.80;;;23.80;82.50;;;;;;10905168;32;20027;-72
2023/07/07 06:22:02;;;;;;;1.58;0.98;;;23.90;82.20;;;;;;10905702;32;20373;-72
2023/07/07 06:28:04;;;;;;;2.72;1.37;;;24.00;81.70;;;;;;10901460;32;20031;-72
2023/07/07 06:34:06;;;;;;;6.22;2.55;;;24.00;81.40;;;;;;10905453;32;20046;-72
2023/07/07 06:40:09;;;;;;;3.08;1.92;;;24.00;80.90;;;;;;10889887;32;20054;-72
2023/07/07 06:46:14;;;;;;;2.42;1.10;;;24.20;81.20;;;;;;10903862;32;20027;-72
2023/07/07 06:52:16;;;;;;;2.97;1.40;;;24.40;81.40;;;;;;10904451;32;20015;-72
2023/07/07 06:58:20;;;;;;;1.65;1.15;;;24.50;81.00;;;;;;10906730;32;20023;-72
2023/07/07 07:04:22;;;;;;;5.62;2.28;;;24.60;81.00;;;;;;10912713;32;20058;-72
2023/07/07 07:10:24;;;;;;;3.87;1.80;;;24.70;81.00;;;;;;10907515;32;20041;-72
2023/07/07 07:16:26;;;;;;;1.77;1.15;;;24.80;80.60;;;;;;10911714;32;20023;-72
2023/07/07 07:22:28;;;;;;;1.65;1.20;;;24.90;80.50;;;;;;10911815;32;20393;-72
2023/07/07 07:28:30;;;;;;;2.75;1.35;;;25.00;80.20;;;;;;10696187;27;7211274;-73
2023/07/07 07:34:33;;;;;;;1.85;1.08;;;25.10;79.70;;;;;;10910546;32;20022;-73
2023/07/07 07:40:35;;;;;;;5.45;2.35;;;25.20;79.00;;;;;;10902859;32;20019;-72
2023/07/07 07:46:37;;;;;;;2.50;1.30;;;25.30;79.00;;;;;;10910936;32;20027;-72
2023/07/07 07:52:40;;;;;;;7.00;2.12;;;25.30;78.70;;;;;;10906174;32;20032;-72
2023/07/07 07:58:42;;;;;;;2.75;1.37;;;25.50;78.00;;;;;;10910538;32;20061;-73
2023/07/07 08:04:44;;;;;;;4.28;2.30;;;25.60;77.80;;;;;;10904212;32;20035;-72
2023/07/07 08:10:46;;;;;;;2.85;1.42;;;25.60;76.90;;;;;;10904581;32;20058;-72
2023/07/07 08:16:51;;;;;;;3.35;1.73;;;25.70;76.70;;;;;;10873158;32;20046;-75
2023/07/07 08:22:54;;;;;;;3.03;1.80;;;25.80;77.10;;;;;;10872452;32;20016;-75
2023/07/07 08:28:56;;;;;;;3.37;1.55;;;25.90;76.70;;;;;;10858394;32;20016;-72
2023/07/07 08:34:58;;;;;;;2.75;1.48;;;26.00;75.80;;;;;;10871955;32;20020;-73
2023/07/07 08:41:00;;;;;;;2.92;1.30;;;26.10;75.40;;;;;;10844541;32;20058;-73
2023/07/07 08:47:27;;;;;;;2.25;1.62;;;26.30;75.40;;;;;;10867511;32;20085;-74
2023/07/07 08:53:35;;;;;;;4.10;2.00;;;26.30;75.10;;;;;;10871998;32;20035;-73
2023/07/07 09:00:03;;;;;;;4.03;2.05;;;26.50;74.20;;;;;;10871549;32;20016;-74
2023/07/07 09:06:32;;;;;;;4.03;2.00;;;26.60;73.70;;;;;;10870189;32;20398;-71
2023/07/07 09:12:38;;;;;;;5.68;3.65;;;26.70;73.80;;;;;;10869681;32;20456;-73
2023/07/07 09:19:11;;;;;;;2.35;1.58;;;26.80;74.00;;;;;;10857794;32;20024;-73
2023/07/07 09:25:22;;;;;;;4.15;1.62;;;27.10;72.60;;;;;;10868691;32;20016;-73
2023/07/07 09:31:36;;;;;;;5.80;2.25;;;27.20;72.00;;;;;;10869018;32;20066;-74
2023/07/07 09:38:09;;;;;;;4.28;2.12;;;27.30;71.60;;;;;;10868994;32;20291;-73
2023/07/07 09:44:31;;;;;;;3.55;2.00;;;27.40;70.90;;;;;;10883174;32;20444;-73
2023/07/07 09:50:59;;;;;;;3.33;1.98;;;27.60;70.90;;;;;;10900948;32;20414;-73
2023/07/07 09:57:11;;;;;;;5.15;2.80;;;27.60;70.90;;;;;;10753248;33;20358;-74
2023/07/07 10:03:28;;;;;;;3.15;1.80;;;27.80;70.10;;;;;;10754388;33;20051;-73
2023/07/07 10:09:31;;;;;;;3.58;2.17;;;27.80;69.50;;;;;;10754830;33;20051;-75
2023/07/07 10:15:53;;;;;;;5.97;2.60;;;27.90;68.90;;;;;;10752569;33;20050;-73
2023/07/07 10:21:56;;;;;;;4.60;2.15;;;28.00;68.30;;;;;;10753657;33;20021;-74
2023/07/07 10:27:58;;;;;;;5.72;2.65;;;28.20;67.80;;;;;;10753012;33;20052;-75
2023/07/07 10:34:20;;;;;;;7.47;2.95;;;28.30;67.50;;;;;;10875508;32;20413;-74
2023/07/07 10:40:25;;;;;;;6.80;2.62;;;28.40;68.00;;;;;;10905594;32;20051;-73
2023/07/07 10:46:27;;;;;;;4.12;2.47;;;28.50;66.50;;;;;;10905229;32;20058;-74
2023/07/07 10:53:07;;;;;;;6.40;2.97;;;28.60;67.60;;;;;;10905165;32;20020;-74
2023/07/07 10:59:12;;;;;;;3.95;2.33;;;28.80;66.60;;;;;;10905080;32;20329;-73
2023/07/07 11:05:28;;;;;;;5.25;2.53;;;29.00;65.40;;;;;;10903813;32;20042;-74
2023/07/07 11:12:09;;;;;;;4.40;2.30;;;29.30;65.30;;;;;;10900453;32;20038;-74
2023/07/07 11:18:30;;;;;;;5.15;2.83;;;29.50;63.70;;;;;;10904866;32;20020;-73
2023/07/07 11:25:02;;;;;;;4.20;2.25;;;29.80;61.90;;;;;;10891251;32;20011;-73
2023/07/07 11:31:46;;;;;;;6.43;3.40;;;30.00;61.30;;;;;;10877078;32;20027;-75
2023/07/07 11:38:03;;;;;;;5.50;3.12;;;30.30;60.90;;;;;;10711797;33;20033;-74
2023/07/07 11:44:44;;;;;;;4.40;2.25;;;30.30;61.40;;;;;;10711895;33;20064;-73
2023/07/07 11:51:18;;;;;;;6.32;2.83;;;30.30;64.80;;;;;;10710346;33;20048;-74
2023/07/07 11:57:32;;;;;;;3.92;1.73;;;30.40;62.30;;;;;;10720487;33;20051;-73
2023/07/07 12:03:39;;;;;;;5.00;2.22;;;30.50;61.90;;;;;;10722203;33;20064;-73
2023/07/07 12:09:53;;;;;;;4.07;2.83;;;30.80;61.20;;;;;;10721997;33;20020;-74
2023/07/07 12:16:12;;;;;;;5.57;2.70;;;31.00;60.00;;;;;;10870158;32;20023;-73
2023/07/07 12:22:26;;;;;;;5.00;2.65;;;30.90;59.20;;;;;;10872614;32;20016;-73
2023/07/07 12:28:29;;;;;;;5.40;2.85;;;31.10;57.90;;;;;;10871843;32;20016;-74
2023/07/07 12:35:12;;;;;;;5.07;2.87;;;31.20;58.10;;;;;;10871564;32;20050;-75
2023/07/07 12:41:18;;;;;;;4.70;2.37;;;31.10;58.30;;;;;;10754427;33;20025;-74
2023/07/07 12:47:33;;;;;;;5.45;2.25;;;31.20;58.30;;;;;;10743486;33;20058;-73
2023/07/07 12:53:39;;;;;;;5.93;2.87;;;31.30;57.70;;;;;;10754032;33;20095;-74
2023/07/07 12:59:41;;;;;;;4.23;2.53;;;31.30;57.60;;;;;;10755069;33;20040;-73
2023/07/07 13:05:48;;;;;;;4.57;2.10;;;31.30;56.60;;;;;;10742779;33;20029;-73
2023/07/07 13:11:52;;;;;;;4.53;2.90;;;31.30;55.40;;;;;;10756039;33;20042;-73
2023/07/07 13:17:57;;;;;;;7.62;3.40;;;31.20;54.80;;;;;;10843647;32;20032;-73
2023/07/07 13:24:01;;;;;;;4.50;2.28;;;31.20;54.90;;;;;;10869636;32;20016;-73
2023/07/07 13:30:27;;;;;;;5.53;3.00;;;31.10;55.00;;;;;;10853964;32;20063;-74
2023/07/07 13:36:29;;;;;;;4.00;2.42;;;31.10;54.40;;;;;;10869286;32;20023;-75
2023/07/07 13:42:33;;;;;;;6.68;3.80;;;31.30;57.40;;;;;;10854650;32;20036;-74
2023/07/07 13:48:41;;;;;;;6.68;3.28;;;31.10;57.40;;;;;;10869282;32;20024;-73
2023/07/07 13:54:56;;;;;;;6.00;2.95;;;31.10;56.50;;;;;;10865912;32;20055;-73
2023/07/07 14:01:01;;;;;;;6.75;2.78;;;31.20;55.80;;;;;;10867896;32;20023;-73
2023/07/07 14:07:03;;;;;;;5.78;2.92;;;31.30;55.50;;;;;;10867300;32;20089;-75
2023/07/07 14:13:14;;;;;;;4.10;2.45;;;31.30;55.10;;;;;;10853694;32;20074;-73
2023/07/07 14:19:35;;;;;;;4.70;2.37;;;31.30;54.50;;;;;;10853511;32;20054;-73
2023/07/07 14:25:44;;;;;;;5.80;3.50;;;31.50;54.20;;;;;;10853330;32;20338;-73
2023/07/07 14:31:46;;;;;;;5.15;3.30;;;31.50;54.00;;;;;;10866747;32;20353;-73
2023/07/07 14:37:58;;;;;;;6.90;3.78;;;31.40;54.40;;;;;;10862911;32;20350;-73
2023/07/07 14:44:01;;;;;;;5.72;3.08;;;31.30;54.40;;;;;;10853611;32;20046;-73
2023/07/07 14:50:10;;;;;;;3.17;1.65;;;31.30;54.50;;;;;;10852678;32;20280;-73
2023/07/07 14:56:22;;;;;;;4.68;2.40;;;31.30;54.40;;;;;;10866615;32;20024;-73
2023/07/07 15:02:26;;;;;;;4.35;2.22;;;31.30;54.20;;;;;;10866610;32;20078;-75
2023/07/07 15:08:29;;;;;;;5.28;2.87;;;31.30;54.30;;;;;;10866425;32;20315;-73
2023/07/07 15:14:31;;;;;;;6.07;3.17;;;31.20;55.30;;;;;;10866222;32;20019;-73
2023/07/07 15:20:33;;;;;;;6.87;2.85;;;31.10;55.20;;;;;;10868803;32;20085;-73
2023/07/07 15:26:36;;;;;;;7.03;3.65;;;31.10;55.20;;;;;;10879463;27;20015;-73
2023/07/07 15:32:40;;;;;;;8.75;4.60;;;31.00;55.10;;;;;;10911019;32;20406;-73
2023/07/07 15:38:42;;;;;;;6.68;4.15;;;31.10;54.20;;;;;;10910053;32;20046;-74
2023/07/07 15:44:44;;;;;;;7.37;3.75;;;31.10;54.10;;;;;;10909999;32;20311;-74
2023/07/07 15:50:46;;;;;;;4.78;2.95;;;31.10;55.10;;;;;;10909620;32;20019;-73
2023/07/07 15:56:48;;;;;;;6.43;3.15;;;31.20;55.00;;;;;;10909430;32;20020;-73
2023/07/07 16:02:50;;;;;;;8.93;3.67;;;31.20;54.90;;;;;;10909207;32;20049;-73
2023/07/07 16:08:52;;;;;;;4.00;2.35;;;31.30;54.60;;;;;;10909073;32;20020;-73
2023/07/07 16:14:56;;;;;;;6.10;3.35;;;31.30;54.40;;;;;;10896539;32;20388;-73
2023/07/07 16:21:22;;;;;;;5.07;2.58;;;31.30;54.50;;;;;;10900059;32;20054;-73
2023/07/07 16:27:25;;;;;;;4.05;2.47;;;31.40;54.40;;;;;;10896090;32;20027;-73
2023/07/07 16:33:26;;;;;;;4.62;2.60;;;31.40;54.50;;;;;;10907829;32;20019;-74
2023/07/07 16:39:49;;;;;;;2.90;1.90;;;31.30;54.00;;;;;;10905193;32;20369;-73
2023/07/07 16:45:51;;;;;;;8.73;3.55;;;31.40;54.20;;;;;;10908010;32;20050;-73
2023/07/07 16:51:53;;;;;;;5.68;3.33;;;31.40;53.70;;;;;;10907597;32;20027;-74
2023/07/07 16:57:55;;;;;;;4.55;2.30;;;31.40;54.60;;;;;;10907388;32;20389;-73
2023/07/07 17:03:58;;;;;;;6.05;2.87;;;31.30;54.30;;;;;;10907195;32;20042;-73
2023/07/07 17:10:00;;;;;;;5.03;2.70;;;31.30;53.50;;;;;;10876845;32;20058;-73
2023/07/07 17:16:12;;;;;;;5.50;2.65;;;31.30;52.70;;;;;;10906826;32;20041;-73
2023/07/07 17:22:14;;;;;;;6.68;2.53;;;31.30;52.80;;;;;;10906360;32;20058;-73
2023/07/07 17:28:16;;;;;;;4.25;2.05;;;31.30;52.50;;;;;;10906216;32;20053;-72
2023/07/07 17:34:19;;;;;;;3.97;1.67;;;31.30;52.70;;;;;;10905608;32;20027;-73
2023/07/07 17:40:30;;;;;;;3.87;2.17;;;31.30;53.10;;;;;;10905175;32;20046;-73
2023/07/07 17:46:38;;;;;;;4.53;2.10;;;31.30;53.30;;;;;;10904870;32;20034;-72
2023/07/07 17:52:40;;;;;;;4.18;2.55;;;31.20;53.60;;;;;;10901466;32;20053;-73
2023/07/07 17:58:43;;;;;;;2.28;1.52;;;31.30;53.50;;;;;;10903854;32;20039;-73
2023/07/07 18:04:45;;;;;;;3.75;2.03;;;32.40;51.70;;;;;;10889796;32;20405;-73
2023/07/07 18:10:48;;;;;;;4.37;2.35;;;32.30;51.70;;;;;;10901228;32;20031;-72
2023/07/07 18:16:50;;;;;;;6.32;2.12;;;31.60;53.50;;;;;;10904625;32;20016;-72
2023/07/07 18:22:52;;;;;;;4.62;2.10;;;31.10;54.60;;;;;;10902176;32;20060;-72
2023/07/07 18:29:10;;;;;;;3.62;1.85;;;30.80;55.70;;;;;;10904400;32;20015;-72
2023/07/07 18:35:12;;;;;;;2.97;1.52;;;30.40;57.10;;;;;;10899950;32;20039;-72
2023/07/07 18:41:15;;;;;;;4.62;2.30;;;30.20;58.60;;;;;;10904219;32;20059;-73
2023/07/07 18:47:18;;;;;;;3.75;2.00;;;30.00;59.80;;;;;;10900916;32;20027;-72
2023/07/07 18:53:20;;;;;;;3.95;1.80;;;29.80;61.10;;;;;;10887126;32;20333;-72
2023/07/07 18:59:23;;;;;;;3.72;1.85;;;29.70;61.10;;;;;;10911629;32;20046;-72
2023/07/07 19:05:26;;;;;;;3.90;1.75;;;29.50;61.60;;;;;;10908059;32;20046;-72
2023/07/07 19:11:29;;;;;;;2.97;1.55;;;29.40;63.20;;;;;;10897706;32;20023;-72
2023/07/07 19:17:31;;;;;;;4.32;1.45;;;29.30;64.60;;;;;;10910954;32;20357;-72
2023/07/07 19:23:33;;;;;;;3.12;1.73;;;29.10;64.90;;;;;;10910309;32;20023;-72
2023/07/07 19:29:38;;;;;;;3.03;1.90;;;29.10;65.30;;;;;;10896194;32;20058;-73
2023/07/07 19:35:41;;;;;;;2.97;1.83;;;28.90;65.50;;;;;;10910214;32;20019;-73
2023/07/07 19:41:44;;;;;;;6.93;2.12;;;28.90;66.20;;;;;;10909884;32;20019;-72
2023/07/07 19:47:47;;;;;;;3.17;1.73;;;28.80;66.80;;;;;;10896169;32;20047;-71
2023/07/07 19:53:51;;;;;;;3.28;1.95;;;28.70;67.20;;;;;;10895532;32;20035;-71
2023/07/07 19:59:53;;;;;;;3.35;1.70;;;28.50;67.70;;;;;;10906612;32;20189;-71
2023/07/07 20:05:55;;;;;;;4.30;2.87;;;28.40;68.10;;;;;;10908487;32;20019;-71
2023/07/07 20:11:57;;;;;;;3.78;1.95;;;28.30;68.60;;;;;;10909025;32;20073;-71
2023/07/07 20:18:00;;;;;;;2.75;1.45;;;28.20;69.10;;;;;;10890601;32;20338;-71
2023/07/07 20:24:13;;;;;;;8.45;2.35;;;28.10;69.40;;;;;;10908376;32;20031;-72
2023/07/07 20:30:21;;;;;;;5.43;2.22;;;28.00;69.60;;;;;;10893538;32;20097;-72
2023/07/07 20:36:24;;;;;;;3.67;1.90;;;27.90;70.10;;;;;;10907616;32;20035;-72
2023/07/07 20:42:26;;;;;;;8.25;2.53;;;27.90;70.60;;;;;;10907965;32;20303;-71
2023/07/07 20:48:29;;;;;;;8.45;2.25;;;27.90;70.70;;;;;;10907612;32;20440;-71
2023/07/07 20:54:31;;;;;;;4.12;2.17;;;27.80;70.80;;;;;;10894172;32;20015;-71
2023/07/07 21:00:34;;;;;;;3.90;2.17;;;27.60;71.70;;;;;;10907262;32;20031;-71
2023/07/07 21:06:37;;;;;;;5.28;1.98;;;27.50;73.10;;;;;;10906828;32;20436;-71
2023/07/07 21:12:39;;;;;;;6.05;2.60;;;27.50;73.70;;;;;;10893630;32;20031;-71
2023/07/07 21:18:41;;;;;;;5.97;2.50;;;27.40;73.10;;;;;;10893330;32;20062;-71
2023/07/07 21:24:44;;;;;;;7.20;2.78;;;27.40;73.10;;;;;;10904720;32;20055;-71
2023/07/07 21:30:47;;;;;;;7.15;2.62;;;27.30;73.30;;;;;;10906280;32;20035;-71
2023/07/07 21:36:49;;;;;;;4.93;2.58;;;27.20;74.10;;;;;;10906195;32;20402;-71
2023/07/07 21:42:51;;;;;;;3.72;1.83;;;27.20;74.00;;;;;;10903017;32;20315;-71
2023/07/07 21:48:53;;;;;;;3.40;2.17;;;27.10;74.00;;;;;;10905705;32;20403;-71
2023/07/07 21:54:55;;;;;;;3.33;1.70;;;27.00;74.20;;;;;;10943250;32;20023;-71
2023/07/07 22:00:58;;;;;;;3.37;1.77;;;26.90;74.60;;;;;;10942878;32;20046;-71
2023/07/07 22:07:00;;;;;;;4.10;2.40;;;26.80;75.00;;;;;;10942845;32;20022;-73
2023/07/07 22:13:02;;;;;;;4.03;2.28;;;26.80;75.00;;;;;;10939199;32;20054;-72
2023/07/07 22:19:05;;;;;;;4.82;2.65;;;26.80;75.10;;;;;;10929030;32;20023;-72
2023/07/07 22:25:07;;;;;;;4.85;2.80;;;26.80;75.30;;;;;;10942256;32;20307;-73
2023/07/07 22:31:15;;;;;;;5.07;2.80;;;26.70;75.40;;;;;;10941553;32;20049;-72
2023/07/07 22:37:21;;;;;;;3.45;2.33;;;26.60;75.60;;;;;;10941925;32;20050;-72
2023/07/07 22:43:25;;;;;;;3.37;2.37;;;26.50;75.60;;;;;;10928417;32;20011;-73
2023/07/07 22:49:27;;;;;;;4.20;2.37;;;26.40;75.80;;;;;;10928174;32;20057;-71
2023/07/07 22:55:29;;;;;;;7.05;2.65;;;26.30;75.90;;;;;;10924417;32;20065;-71
2023/07/07 23:01:31;;;;;;;5.87;3.78;;;26.40;75.60;;;;;;10941458;32;20027;-71
2023/07/07 23:07:33;;;;;;;2.87;1.73;;;26.40;75.70;;;;;;10941218;32;20054;-71
2023/07/07 23:13:35;;;;;;;3.05;1.67;;;26.30;75.80;;;;;;10941171;32;20042;-71
2023/07/07 23:19:37;;;;;;;3.50;1.90;;;26.20;76.00;;;;;;10927800;32;20023;-71
2023/07/07 23:25:39;;;;;;;5.60;2.85;;;26.10;76.20;;;;;;10941026;32;20097;-71
2023/07/07 23:31:41;;;;;;;4.28;2.75;;;26.10;76.10;;;;;;10962060;27;20038;-71
2023/07/07 23:37:49;;;;;;;4.82;2.72;;;26.00;76.00;;;;;;10976678;32;20030;-71
2023/07/07 23:43:53;;;;;;;6.87;3.20;;;25.90;76.40;;;;;;10982486;32;20045;-71
2023/07/07 23:49:55;;;;;;;5.30;3.12;;;25.90;76.50;;;;;;10985424;32;20068;-71
2023/07/07 23:55:57;;;;;;;4.05;2.62;;;26.00;76.50;;;;;;10985108;32;20011;-71
